sensor_id;sensor_type;location;lat;lon;timestamp;P1;durP1;ratioP1;P2;durP2;ratioP2
66619;SDS011;53484;51.356;6.732;2022-11-27T00:02:04;13.97;;;3.87;;
66619;SDS011;53484;51.356;6.732;2022-11-27T00:04:30;11.50;;;3.30;;
66619;SDS011;53484;51.356;6.732;2022-11-27T00:06:58;13.70;;;3.20;;
66619;SDS011;53484;51.356;6.732;2022-11-27T00:09:24;12.43;;;3.80;;
66619;SDS011;53484;51.356;6.732;2022-11-27T00:11:50;16.17;;;3.40;;
66619;SDS011;53484;51.356;6.732;2022-11-27T00:14:17;11.77;;;2.97;;
66619;SDS011;53484;51.356;6.732;2022-11-27T00:16:43;13.63;;;3.53;;
66619;SDS011;53484;51.356;6.732;2022-11-27T00:19:10;10.98;;;3.42;;
66619;SDS011;53484;51.356;6.732;2022-11-27T00:21:36;16.00;;;3.00;;
66619;SDS011;53484;51.356;6.732;2022-11-27T00:24:05;15.85;;;3.78;;
66619;SDS011;53484;51.356;6.732;2022-11-27T00:26:32;7.33;;;3.17;;
66619;SDS011;53484;51.356;6.732;2022-11-27T00:28:59;11.70;;;3.05;;
66619;SDS011;53484;51.356;6.732;2022-11-27T00:31:26;11.57;;;3.28;;
66619;SDS011;53484;51.356;6.732;2022-11-27T00:33:53;11.93;;;3.50;;
66619;SDS011;53484;51.356;6.732;2022-11-27T00:36:19;12.13;;;2.97;;
66619;SDS011;53484;51.356;6.732;2022-11-27T00:38:45;12.73;;;2.83;;
66619;SDS011;53484;51.356;6.732;2022-11-27T00:41:15;18.63;;;3.65;;
66619;SDS011;53484;51.356;6.732;2022-11-27T00:43:42;8.98;;;2.40;;
66619;SDS011;53484;51.356;6.732;2022-11-27T00:46:08;9.73;;;2.53;;
66619;SDS011;53484;51.356;6.732;2022-11-27T00:48:34;12.55;;;3.13;;
66619;SDS011;53484;51.356;6.732;2022-11-27T00:51:01;10.23;;;2.50;;
66619;SDS011;53484;51.356;6.732;2022-11-27T00:53:28;11.57;;;2.75;;
66619;SDS011;53484;51.356;6.732;2022-11-27T00:55:56;14.88;;;3.08;;
66619;SDS011;53484;51.356;6.732;2022-11-27T00:58:24;13.70;;;2.83;;
66619;SDS011;53484;51.356;6.732;2022-11-27T01:00:53;11.55;;;2.72;;
66619;SDS011;53484;51.356;6.732;2022-11-27T01:03:19;9.87;;;2.83;;
66619;SDS011;53484;51.356;6.732;2022-11-27T01:05:46;13.50;;;2.47;;
66619;SDS011;53484;51.356;6.732;2022-11-27T01:08:12;12.10;;;2.80;;
66619;SDS011;53484;51.356;6.732;2022-11-27T01:10:38;10.18;;;2.60;;
66619;SDS011;53484;51.356;6.732;2022-11-27T01:13:04;12.05;;;3.03;;
66619;SDS011;53484;51.356;6.732;2022-11-27T01:15:32;11.90;;;2.60;;
66619;SDS011;53484;51.356;6.732;2022-11-27T01:17:58;14.77;;;3.00;;
66619;SDS011;53484;51.356;6.732;2022-11-27T01:20:25;9.45;;;2.70;;
66619;SDS011;53484;51.356;6.732;2022-11-27T01:22:51;12.88;;;2.85;;
66619;SDS011;53484;51.356;6.732;2022-11-27T01:25:17;10.30;;;2.72;;
66619;SDS011;53484;51.356;6.732;2022-11-27T01:27:43;10.80;;;3.60;;
66619;SDS011;53484;51.356;6.732;2022-11-27T01:30:10;9.82;;;2.60;;
66619;SDS011;53484;51.356;6.732;2022-11-27T01:32:38;8.63;;;2.67;;
66619;SDS011;53484;51.356;6.732;2022-11-27T01:35:04;10.35;;;2.47;;
66619;SDS011;53484;51.356;6.732;2022-11-27T01:37:31;11.50;;;2.63;;
66619;SDS011;53484;51.356;6.732;2022-11-27T01:39:57;8.13;;;2.30;;
66619;SDS011;53484;51.356;6.732;2022-11-27T01:42:23;8.20;;;2.28;;
66619;SDS011;53484;51.356;6.732;2022-11-27T01:44:53;8.82;;;2.40;;
66619;SDS011;53484;51.356;6.732;2022-11-27T01:47:24;17.50;;;3.17;;
66619;SDS011;53484;51.356;6.732;2022-11-27T01:49:53;7.13;;;2.60;;
66619;SDS011;53484;51.356;6.732;2022-11-27T01:52:22;13.10;;;2.90;;
66619;SDS011;53484;51.356;6.732;2022-11-27T01:54:52;9.32;;;2.75;;
66619;SDS011;53484;51.356;6.732;2022-11-27T01:57:20;8.98;;;2.72;;
66619;SDS011;53484;51.356;6.732;2022-11-27T01:59:47;13.55;;;3.17;;
66619;SDS011;53484;51.356;6.732;2022-11-27T02:02:14;9.93;;;2.55;;
66619;SDS011;53484;51.356;6.732;2022-11-27T02:04:40;8.93;;;2.57;;
66619;SDS011;53484;51.356;6.732;2022-11-27T02:07:08;10.35;;;2.65;;
66619;SDS011;53484;51.356;6.732;2022-11-27T02:09:34;8.85;;;2.60;;
66619;SDS011;53484;51.356;6.732;2022-11-27T02:12:01;10.90;;;3.00;;
66619;SDS011;53484;51.356;6.732;2022-11-27T02:14:31;9.82;;;2.50;;
66619;SDS011;53484;51.356;6.732;2022-11-27T02:17:01;11.70;;;2.93;;
66619;SDS011;53484;51.356;6.732;2022-11-27T02:19:38;10.55;;;2.53;;
66619;SDS011;53484;51.356;6.732;2022-11-27T02:22:11;10.05;;;2.60;;
66619;SDS011;53484;51.356;6.732;2022-11-27T02:24:45;7.97;;;2.67;;
66619;SDS011;53484;51.356;6.732;2022-11-27T02:29:57;10.23;;;3.07;;
66619;SDS011;53484;51.356;6.732;2022-11-27T02:32:28;12.00;;;2.65;;
66619;SDS011;53484;51.356;6.732;2022-11-27T02:34:57;9.88;;;2.45;;
66619;SDS011;53484;51.356;6.732;2022-11-27T02:37:28;8.80;;;2.75;;
66619;SDS011;53484;51.356;6.732;2022-11-27T02:39:58;8.45;;;2.40;;
66619;SDS011;53484;51.356;6.732;2022-11-27T02:42:26;8.77;;;3.10;;
66619;SDS011;53484;51.356;6.732;2022-11-27T02:44:56;9.57;;;3.10;;
66619;SDS011;53484;51.356;6.732;2022-11-27T02:47:24;15.68;;;3.28;;
66619;SDS011;53484;51.356;6.732;2022-11-27T02:49:51;10.45;;;3.15;;
66619;SDS011;53484;51.356;6.732;2022-11-27T02:52:21;11.95;;;3.75;;
66619;SDS011;53484;51.356;6.732;2022-11-27T02:54:48;10.53;;;3.00;;
66619;SDS011;53484;51.356;6.732;2022-11-27T02:57:17;15.82;;;3.10;;
66619;SDS011;53484;51.356;6.732;2022-11-27T02:59:45;13.57;;;3.28;;
66619;SDS011;53484;51.356;6.732;2022-11-27T03:02:13;11.38;;;3.35;;
66619;SDS011;53484;51.356;6.732;2022-11-27T03:04:43;14.80;;;3.90;;
66619;SDS011;53484;51.356;6.732;2022-11-27T03:07:13;12.93;;;3.37;;
66619;SDS011;53484;51.356;6.732;2022-11-27T03:09:42;10.63;;;3.17;;
66619;SDS011;53484;51.356;6.732;2022-11-27T03:12:10;12.38;;;4.30;;
66619;SDS011;53484;51.356;6.732;2022-11-27T03:14:37;15.45;;;3.53;;
66619;SDS011;53484;51.356;6.732;2022-11-27T03:17:05;11.90;;;4.05;;
66619;SDS011;53484;51.356;6.732;2022-11-27T03:19:37;11.27;;;3.60;;
66619;SDS011;53484;51.356;6.732;2022-11-27T03:22:06;11.05;;;4.00;;
66619;SDS011;53484;51.356;6.732;2022-11-27T03:24:33;11.85;;;3.92;;
66619;SDS011;53484;51.356;6.732;2022-11-27T03:27:00;12.05;;;4.20;;
66619;SDS011;53484;51.356;6.732;2022-11-27T03:29:28;14.55;;;4.82;;
66619;SDS011;53484;51.356;6.732;2022-11-27T03:31:56;15.57;;;4.20;;
66619;SDS011;53484;51.356;6.732;2022-11-27T03:34:22;15.07;;;5.20;;
66619;SDS011;53484;51.356;6.732;2022-11-27T03:36:49;16.25;;;4.70;;
66619;SDS011;53484;51.356;6.732;2022-11-27T03:39:16;12.95;;;4.72;;
66619;SDS011;53484;51.356;6.732;2022-11-27T03:41:44;15.02;;;4.80;;
66619;SDS011;53484;51.356;6.732;2022-11-27T03:44:13;14.03;;;5.83;;
66619;SDS011;53484;51.356;6.732;2022-11-27T03:46:45;15.07;;;4.90;;
66619;SDS011;53484;51.356;6.732;2022-11-27T03:49:13;16.38;;;4.95;;
66619;SDS011;53484;51.356;6.732;2022-11-27T03:51:44;14.60;;;4.90;;
66619;SDS011;53484;51.356;6.732;2022-11-27T03:54:18;19.92;;;5.05;;
66619;SDS011;53484;51.356;6.732;2022-11-27T03:56:51;15.27;;;5.40;;
66619;SDS011;53484;51.356;6.732;2022-11-27T03:59:19;13.35;;;5.55;;
66619;SDS011;53484;51.356;6.732;2022-11-27T04:01:47;13.73;;;5.05;;
66619;SDS011;53484;51.356;6.732;2022-11-27T04:04:14;14.10;;;5.70;;
66619;SDS011;53484;51.356;6.732;2022-11-27T04:06:40;17.90;;;5.85;;
66619;SDS011;53484;51.356;6.732;2022-11-27T04:09:06;15.57;;;4.80;;
66619;SDS011;53484;51.356;6.732;2022-11-27T04:11:34;16.00;;;5.70;;
66619;SDS011;53484;51.356;6.732;2022-11-27T04:14:01;16.05;;;5.68;;
66619;SDS011;53484;51.356;6.732;2022-11-27T04:16:27;20.63;;;5.97;;
66619;SDS011;53484;51.356;6.732;2022-11-27T04:18:53;16.40;;;5.88;;
66619;SDS011;53484;51.356;6.732;2022-11-27T04:21:20;16.47;;;5.57;;
66619;SDS011;53484;51.356;6.732;2022-11-27T04:23:46;18.05;;;6.15;;
66619;SDS011;53484;51.356;6.732;2022-11-27T04:26:12;17.65;;;5.65;;
66619;SDS011;53484;51.356;6.732;2022-11-27T04:28:40;18.10;;;5.68;;
66619;SDS011;53484;51.356;6.732;2022-11-27T04:31:06;17.45;;;6.20;;
66619;SDS011;53484;51.356;6.732;2022-11-27T04:33:33;17.70;;;5.70;;
66619;SDS011;53484;51.356;6.732;2022-11-27T04:35:59;17.40;;;6.35;;
66619;SDS011;53484;51.356;6.732;2022-11-27T04:38:25;22.52;;;6.50;;
66619;SDS011;53484;51.356;6.732;2022-11-27T04:40:51;14.73;;;6.50;;
66619;SDS011;53484;51.356;6.732;2022-11-27T04:43:18;18.25;;;5.88;;
66619;SDS011;53484;51.356;6.732;2022-11-27T04:45:45;18.73;;;6.50;;
66619;SDS011;53484;51.356;6.732;2022-11-27T04:48:12;17.13;;;6.25;;
66619;SDS011;53484;51.356;6.732;2022-11-27T04:50:38;15.48;;;6.03;;
66619;SDS011;53484;51.356;6.732;2022-11-27T04:53:05;18.67;;;6.18;;
66619;SDS011;53484;51.356;6.732;2022-11-27T04:55:31;17.25;;;6.38;;
66619;SDS011;53484;51.356;6.732;2022-11-27T04:57:57;14.70;;;6.10;;
66619;SDS011;53484;51.356;6.732;2022-11-27T05:00:23;15.93;;;5.82;;
66619;SDS011;53484;51.356;6.732;2022-11-27T05:02:51;16.95;;;6.45;;
66619;SDS011;53484;51.356;6.732;2022-11-27T05:05:17;24.38;;;6.35;;
66619;SDS011;53484;51.356;6.732;2022-11-27T05:07:44;16.42;;;6.03;;
66619;SDS011;53484;51.356;6.732;2022-11-27T05:10:10;16.13;;;5.93;;
66619;SDS011;53484;51.356;6.732;2022-11-27T05:12:36;16.13;;;5.45;;
66619;SDS011;53484;51.356;6.732;2022-11-27T05:15:03;16.92;;;6.00;;
66619;SDS011;53484;51.356;6.732;2022-11-27T05:17:29;14.98;;;6.13;;
66619;SDS011;53484;51.356;6.732;2022-11-27T05:19:58;14.15;;;5.38;;
66619;SDS011;53484;51.356;6.732;2022-11-27T05:22:24;15.07;;;5.97;;
66619;SDS011;53484;51.356;6.732;2022-11-27T05:24:50;14.32;;;5.97;;
66619;SDS011;53484;51.356;6.732;2022-11-27T05:27:16;16.38;;;5.97;;
66619;SDS011;53484;51.356;6.732;2022-11-27T05:29:43;17.45;;;5.75;;
66619;SDS011;53484;51.356;6.732;2022-11-27T05:32:09;16.85;;;5.43;;
66619;SDS011;53484;51.356;6.732;2022-11-27T05:34:35;17.20;;;6.20;;
66619;SDS011;53484;51.356;6.732;2022-11-27T05:37:03;17.33;;;6.45;;
66619;SDS011;53484;51.356;6.732;2022-11-27T05:39:29;16.20;;;6.30;;
66619;SDS011;53484;51.356;6.732;2022-11-27T05:41:56;17.20;;;5.60;;
66619;SDS011;53484;51.356;6.732;2022-11-27T05:44:22;14.68;;;5.30;;
66619;SDS011;53484;51.356;6.732;2022-11-27T05:46:48;14.53;;;6.23;;
66619;SDS011;53484;51.356;6.732;2022-11-27T05:49:14;16.63;;;5.63;;
66619;SDS011;53484;51.356;6.732;2022-11-27T05:51:41;15.07;;;5.72;;
66619;SDS011;53484;51.356;6.732;2022-11-27T05:54:09;15.90;;;6.30;;
66619;SDS011;53484;51.356;6.732;2022-11-27T05:56:35;17.80;;;6.07;;
66619;SDS011;53484;51.356;6.732;2022-11-27T05:59:01;13.50;;;5.20;;
66619;SDS011;53484;51.356;6.732;2022-11-27T06:01:28;15.18;;;5.70;;
66619;SDS011;53484;51.356;6.732;2022-11-27T06:03:54;13.93;;;6.30;;
66619;SDS011;53484;51.356;6.732;2022-11-27T06:06:21;13.68;;;5.22;;
66619;SDS011;53484;51.356;6.732;2022-11-27T06:08:47;14.30;;;5.88;;
66619;SDS011;53484;51.356;6.732;2022-11-27T06:11:16;14.03;;;4.80;;
66619;SDS011;53484;51.356;6.732;2022-11-27T06:13:43;15.32;;;5.75;;
66619;SDS011;53484;51.356;6.732;2022-11-27T06:16:10;15.02;;;5.75;;
66619;SDS011;53484;51.356;6.732;2022-11-27T06:18:37;12.15;;;5.30;;
66619;SDS011;53484;51.356;6.732;2022-11-27T06:21:06;15.57;;;5.93;;
66619;SDS011;53484;51.356;6.732;2022-11-27T06:23:33;14.80;;;5.33;;
66619;SDS011;53484;51.356;6.732;2022-11-27T06:26:10;17.73;;;5.70;;
66619;SDS011;53484;51.356;6.732;2022-11-27T06:28:38;13.05;;;4.72;;
66619;SDS011;53484;51.356;6.732;2022-11-27T06:31:06;11.90;;;4.93;;
66619;SDS011;53484;51.356;6.732;2022-11-27T06:33:32;13.63;;;4.85;;
66619;SDS011;53484;51.356;6.732;2022-11-27T06:35:58;13.33;;;4.87;;
66619;SDS011;53484;51.356;6.732;2022-11-27T06:38:25;16.05;;;5.72;;
66619;SDS011;53484;51.356;6.732;2022-11-27T06:40:51;12.52;;;5.18;;
66619;SDS011;53484;51.356;6.732;2022-11-27T06:43:17;14.48;;;5.72;;
66619;SDS011;53484;51.356;6.732;2022-11-27T06:45:54;16.58;;;4.88;;
66619;SDS011;53484;51.356;6.732;2022-11-27T06:48:22;15.60;;;5.10;;
66619;SDS011;53484;51.356;6.732;2022-11-27T06:50:48;11.75;;;4.75;;
66619;SDS011;53484;51.356;6.732;2022-11-27T06:53:14;14.38;;;4.72;;
66619;SDS011;53484;51.356;6.732;2022-11-27T06:55:41;12.18;;;4.72;;
66619;SDS011;53484;51.356;6.732;2022-11-27T06:58:07;11.38;;;4.60;;
66619;SDS011;53484;51.356;6.732;2022-11-27T07:00:33;15.33;;;4.93;;
66619;SDS011;53484;51.356;6.732;2022-11-27T07:03:01;15.00;;;5.68;;
66619;SDS011;53484;51.356;6.732;2022-11-27T07:05:27;11.77;;;5.13;;
66619;SDS011;53484;51.356;6.732;2022-11-27T07:07:54;15.15;;;4.80;;
66619;SDS011;53484;51.356;6.732;2022-11-27T07:10:20;12.95;;;5.25;;
66619;SDS011;53484;51.356;6.732;2022-11-27T07:12:46;17.77;;;5.37;;
66619;SDS011;53484;51.356;6.732;2022-11-27T07:15:13;11.60;;;4.65;;
66619;SDS011;53484;51.356;6.732;2022-11-27T07:17:39;12.40;;;5.15;;
66619;SDS011;53484;51.356;6.732;2022-11-27T07:20:07;14.75;;;5.07;;
66619;SDS011;53484;51.356;6.732;2022-11-27T07:22:34;11.05;;;4.53;;
66619;SDS011;53484;51.356;6.732;2022-11-27T07:25:00;16.83;;;5.23;;
66619;SDS011;53484;51.356;6.732;2022-11-27T07:27:26;12.75;;;5.25;;
66619;SDS011;53484;51.356;6.732;2022-11-27T07:29:52;15.10;;;4.55;;
66619;SDS011;53484;51.356;6.732;2022-11-27T07:32:20;16.17;;;4.95;;
66619;SDS011;53484;51.356;6.732;2022-11-27T07:34:47;10.35;;;4.20;;
66619;SDS011;53484;51.356;6.732;2022-11-27T07:37:14;15.57;;;4.57;;
66619;SDS011;53484;51.356;6.732;2022-11-27T07:39:41;12.80;;;4.38;;
66619;SDS011;53484;51.356;6.732;2022-11-27T07:42:07;11.25;;;4.00;;
66619;SDS011;53484;51.356;6.732;2022-11-27T07:44:33;12.60;;;4.68;;
66619;SDS011;53484;51.356;6.732;2022-11-27T07:46:59;15.80;;;5.05;;
66619;SDS011;53484;51.356;6.732;2022-11-27T07:49:26;12.23;;;5.23;;
66619;SDS011;53484;51.356;6.732;2022-11-27T07:51:52;11.82;;;4.43;;
66619;SDS011;53484;51.356;6.732;2022-11-27T07:54:20;13.80;;;4.70;;
66619;SDS011;53484;51.356;6.732;2022-11-27T07:56:47;11.55;;;4.65;;
66619;SDS011;53484;51.356;6.732;2022-11-27T07:59:14;13.50;;;4.45;;
66619;SDS011;53484;51.356;6.732;2022-11-27T08:01:40;10.87;;;4.30;;
66619;SDS011;53484;51.356;6.732;2022-11-27T08:04:07;12.77;;;4.50;;
66619;SDS011;53484;51.356;6.732;2022-11-27T08:06:33;11.82;;;4.20;;
66619;SDS011;53484;51.356;6.732;2022-11-27T08:08:59;11.00;;;4.20;;
66619;SDS011;53484;51.356;6.732;2022-11-27T08:11:27;11.85;;;4.47;;
66619;SDS011;53484;51.356;6.732;2022-11-27T08:13:56;11.50;;;4.40;;
66619;SDS011;53484;51.356;6.732;2022-11-27T08:16:22;9.32;;;4.20;;
66619;SDS011;53484;51.356;6.732;2022-11-27T08:18:48;10.90;;;4.38;;
66619;SDS011;53484;51.356;6.732;2022-11-27T08:21:15;11.48;;;3.85;;
66619;SDS011;53484;51.356;6.732;2022-11-27T08:23:41;13.85;;;4.78;;
66619;SDS011;53484;51.356;6.732;2022-11-27T08:26:07;8.87;;;3.60;;
66619;SDS011;53484;51.356;6.732;2022-11-27T08:28:35;9.63;;;3.53;;
66619;SDS011;53484;51.356;6.732;2022-11-27T08:31:02;10.65;;;3.95;;
66619;SDS011;53484;51.356;6.732;2022-11-27T08:33:29;10.10;;;4.10;;
66619;SDS011;53484;51.356;6.732;2022-11-27T08:35:56;13.43;;;4.15;;
66619;SDS011;53484;51.356;6.732;2022-11-27T08:38:22;9.33;;;4.30;;
66619;SDS011;53484;51.356;6.732;2022-11-27T08:40:55;13.50;;;3.90;;
66619;SDS011;53484;51.356;6.732;2022-11-27T08:43:21;11.13;;;4.47;;
66619;SDS011;53484;51.356;6.732;2022-11-27T08:45:49;12.98;;;4.00;;
66619;SDS011;53484;51.356;6.732;2022-11-27T08:48:15;11.40;;;3.63;;
66619;SDS011;53484;51.356;6.732;2022-11-27T08:50:42;9.63;;;3.97;;
66619;SDS011;53484;51.356;6.732;2022-11-27T08:53:09;10.93;;;4.55;;
66619;SDS011;53484;51.356;6.732;2022-11-27T08:55:35;10.57;;;4.60;;
66619;SDS011;53484;51.356;6.732;2022-11-27T08:58:02;10.18;;;3.70;;
66619;SDS011;53484;51.356;6.732;2022-11-27T09:00:28;13.52;;;4.20;;
66619;SDS011;53484;51.356;6.732;2022-11-27T09:02:57;9.13;;;4.07;;
66619;SDS011;53484;51.356;6.732;2022-11-27T09:05:23;8.98;;;4.20;;
66619;SDS011;53484;51.356;6.732;2022-11-27T09:07:49;8.18;;;3.83;;
66619;SDS011;53484;51.356;6.732;2022-11-27T09:10:15;10.20;;;3.85;;
66619;SDS011;53484;51.356;6.732;2022-11-27T09:12:42;10.40;;;4.35;;
66619;SDS011;53484;51.356;6.732;2022-11-27T09:15:10;15.70;;;4.10;;
66619;SDS011;53484;51.356;6.732;2022-11-27T09:17:36;10.65;;;4.95;;
66619;SDS011;53484;51.356;6.732;2022-11-27T09:20:05;11.73;;;4.10;;
66619;SDS011;53484;51.356;6.732;2022-11-27T09:22:32;10.90;;;4.50;;
66619;SDS011;53484;51.356;6.732;2022-11-27T09:24:58;10.77;;;4.15;;
66619;SDS011;53484;51.356;6.732;2022-11-27T09:27:24;11.30;;;4.77;;
66619;SDS011;53484;51.356;6.732;2022-11-27T09:29:51;20.45;;;6.50;;
66619;SDS011;53484;51.356;6.732;2022-11-27T09:32:17;15.68;;;4.30;;
66619;SDS011;53484;51.356;6.732;2022-11-27T09:34:44;15.68;;;7.43;;
66619;SDS011;53484;51.356;6.732;2022-11-27T09:37:11;15.00;;;6.60;;
66619;SDS011;53484;51.356;6.732;2022-11-27T09:39:37;11.43;;;4.17;;
66619;SDS011;53484;51.356;6.732;2022-11-27T09:42:04;13.25;;;4.45;;
66619;SDS011;53484;51.356;6.732;2022-11-27T09:44:33;9.52;;;3.55;;
66619;SDS011;53484;51.356;6.732;2022-11-27T09:47:04;14.25;;;4.30;;
66619;SDS011;53484;51.356;6.732;2022-11-27T09:49:34;8.95;;;3.30;;
66619;SDS011;53484;51.356;6.732;2022-11-27T09:52:01;9.90;;;3.30;;
66619;SDS011;53484;51.356;6.732;2022-11-27T09:54:30;7.95;;;3.33;;
66619;SDS011;53484;51.356;6.732;2022-11-27T09:56:59;8.60;;;3.33;;
66619;SDS011;53484;51.356;6.732;2022-11-27T09:59:28;9.32;;;3.42;;
66619;SDS011;53484;51.356;6.732;2022-11-27T10:01:55;9.85;;;3.67;;
66619;SDS011;53484;51.356;6.732;2022-11-27T10:04:22;9.73;;;3.40;;
66619;SDS011;53484;51.356;6.732;2022-11-27T10:07:01;7.80;;;3.50;;
66619;SDS011;53484;51.356;6.732;2022-11-27T10:09:33;10.30;;;3.30;;
66619;SDS011;53484;51.356;6.732;2022-11-27T10:12:05;11.45;;;3.67;;
66619;SDS011;53484;51.356;6.732;2022-11-27T10:14:37;9.20;;;3.33;;
66619;SDS011;53484;51.356;6.732;2022-11-27T10:17:06;8.17;;;3.50;;
66619;SDS011;53484;51.356;6.732;2022-11-27T10:19:38;11.63;;;4.03;;
66619;SDS011;53484;51.356;6.732;2022-11-27T10:22:09;9.18;;;4.15;;
66619;SDS011;53484;51.356;6.732;2022-11-27T10:24:40;9.43;;;3.80;;
66619;SDS011;53484;51.356;6.732;2022-11-27T10:27:12;9.77;;;4.00;;
66619;SDS011;53484;51.356;6.732;2022-11-27T10:29:42;11.13;;;3.53;;
66619;SDS011;53484;51.356;6.732;2022-11-27T10:32:12;7.85;;;3.83;;
66619;SDS011;53484;51.356;6.732;2022-11-27T10:34:41;8.63;;;3.55;;
66619;SDS011;53484;51.356;6.732;2022-11-27T10:37:11;10.00;;;3.85;;
66619;SDS011;53484;51.356;6.732;2022-11-27T10:39:41;7.50;;;3.75;;
66619;SDS011;53484;51.356;6.732;2022-11-27T10:42:10;8.80;;;3.67;;
66619;SDS011;53484;51.356;6.732;2022-11-27T10:44:40;9.88;;;4.15;;
66619;SDS011;53484;51.356;6.732;2022-11-27T10:47:09;11.70;;;4.45;;
66619;SDS011;53484;51.356;6.732;2022-11-27T10:49:37;12.65;;;4.22;;
66619;SDS011;53484;51.356;6.732;2022-11-27T10:52:04;7.78;;;3.90;;
66619;SDS011;53484;51.356;6.732;2022-11-27T10:54:33;10.63;;;4.03;;
66619;SDS011;53484;51.356;6.732;2022-11-27T10:59:47;9.80;;;4.05;;
66619;SDS011;53484;51.356;6.732;2022-11-27T11:02:28;8.55;;;4.32;;
66619;SDS011;53484;51.356;6.732;2022-11-27T11:04:54;9.90;;;4.20;;
66619;SDS011;53484;51.356;6.732;2022-11-27T11:07:23;9.80;;;4.30;;
66619;SDS011;53484;51.356;6.732;2022-11-27T11:09:49;9.13;;;4.20;;
66619;SDS011;53484;51.356;6.732;2022-11-27T11:12:18;11.10;;;4.38;;
66619;SDS011;53484;51.356;6.732;2022-11-27T11:14:50;12.98;;;3.92;;
66619;SDS011;53484;51.356;6.732;2022-11-27T11:17:16;8.13;;;3.88;;
66619;SDS011;53484;51.356;6.732;2022-11-27T11:19:43;10.73;;;4.20;;
66619;SDS011;53484;51.356;6.732;2022-11-27T11:22:11;9.18;;;3.88;;
66619;SDS011;53484;51.356;6.732;2022-11-27T11:24:38;9.52;;;3.75;;
66619;SDS011;53484;51.356;6.732;2022-11-27T11:27:09;10.15;;;3.75;;
66619;SDS011;53484;51.356;6.732;2022-11-27T11:29:38;12.45;;;4.20;;
66619;SDS011;53484;51.356;6.732;2022-11-27T11:32:08;11.53;;;4.10;;
66619;SDS011;53484;51.356;6.732;2022-11-27T11:34:40;9.63;;;3.50;;
66619;SDS011;53484;51.356;6.732;2022-11-27T11:37:13;10.48;;;4.28;;
66619;SDS011;53484;51.356;6.732;2022-11-27T11:39:43;7.38;;;3.58;;
66619;SDS011;53484;51.356;6.732;2022-11-27T11:42:15;9.52;;;3.85;;
66619;SDS011;53484;51.356;6.732;2022-11-27T11:44:45;8.40;;;3.50;;
66619;SDS011;53484;51.356;6.732;2022-11-27T11:47:17;8.07;;;3.72;;
66619;SDS011;53484;51.356;6.732;2022-11-27T11:49:44;12.63;;;5.75;;
66619;SDS011;53484;51.356;6.732;2022-11-27T11:52:13;12.55;;;6.35;;
66619;SDS011;53484;51.356;6.732;2022-11-27T11:54:51;9.15;;;3.53;;
66619;SDS011;53484;51.356;6.732;2022-11-27T11:57:31;8.70;;;3.83;;
66619;SDS011;53484;51.356;6.732;2022-11-27T12:00:01;8.65;;;3.58;;
66619;SDS011;53484;51.356;6.732;2022-11-27T12:02:35;9.23;;;3.50;;
66619;SDS011;53484;51.356;6.732;2022-11-27T12:05:17;9.60;;;3.92;;
66619;SDS011;53484;51.356;6.732;2022-11-27T12:07:53;9.93;;;3.60;;
66619;SDS011;53484;51.356;6.732;2022-11-27T12:10:26;8.73;;;3.60;;
66619;SDS011;53484;51.356;6.732;2022-11-27T12:12:56;10.73;;;4.15;;
66619;SDS011;53484;51.356;6.732;2022-11-27T12:15:28;11.57;;;4.25;;
66619;SDS011;53484;51.356;6.732;2022-11-27T12:17:59;9.82;;;4.25;;
66619;SDS011;53484;51.356;6.732;2022-11-27T12:20:29;8.75;;;3.70;;
66619;SDS011;53484;51.356;6.732;2022-11-27T12:23:07;9.73;;;3.80;;
66619;SDS011;53484;51.356;6.732;2022-11-27T12:25:39;8.80;;;3.30;;
66619;SDS011;53484;51.356;6.732;2022-11-27T12:28:11;9.55;;;3.83;;
66619;SDS011;53484;51.356;6.732;2022-11-27T12:30:44;8.82;;;3.65;;
66619;SDS011;53484;51.356;6.732;2022-11-27T12:33:17;7.95;;;3.67;;
66619;SDS011;53484;51.356;6.732;2022-11-27T12:35:51;12.17;;;3.90;;
66619;SDS011;53484;51.356;6.732;2022-11-27T12:38:26;8.00;;;3.85;;
66619;SDS011;53484;51.356;6.732;2022-11-27T12:43:50;9.07;;;3.75;;
66619;SDS011;53484;51.356;6.732;2022-11-27T12:46:21;12.23;;;3.83;;
66619;SDS011;53484;51.356;6.732;2022-11-27T12:48:52;13.77;;;4.00;;
66619;SDS011;53484;51.356;6.732;2022-11-27T12:51:21;9.23;;;4.10;;
66619;SDS011;53484;51.356;6.732;2022-11-27T12:53:49;7.88;;;3.85;;
66619;SDS011;53484;51.356;6.732;2022-11-27T12:56:19;8.50;;;3.90;;
66619;SDS011;53484;51.356;6.732;2022-11-27T12:58:50;8.63;;;3.30;;
66619;SDS011;53484;51.356;6.732;2022-11-27T13:01:19;7.77;;;3.53;;
66619;SDS011;53484;51.356;6.732;2022-11-27T13:03:47;8.07;;;3.75;;
66619;SDS011;53484;51.356;6.732;2022-11-27T13:06:21;8.23;;;4.20;;
66619;SDS011;53484;51.356;6.732;2022-11-27T13:08:48;9.00;;;3.70;;
66619;SDS011;53484;51.356;6.732;2022-11-27T13:11:19;8.35;;;4.05;;
66619;SDS011;53484;51.356;6.732;2022-11-27T13:13:50;10.13;;;4.10;;
66619;SDS011;53484;51.356;6.732;2022-11-27T13:16:18;10.43;;;3.75;;
66619;SDS011;53484;51.356;6.732;2022-11-27T13:18:47;6.82;;;3.33;;
66619;SDS011;53484;51.356;6.732;2022-11-27T13:21:16;25.60;;;11.82;;
66619;SDS011;53484;51.356;6.732;2022-11-27T13:23:45;9.13;;;4.75;;
66619;SDS011;53484;51.356;6.732;2022-11-27T13:26:12;8.60;;;3.93;;
66619;SDS011;53484;51.356;6.732;2022-11-27T13:28:41;11.75;;;4.70;;
66619;SDS011;53484;51.356;6.732;2022-11-27T13:31:10;10.48;;;3.42;;
66619;SDS011;53484;51.356;6.732;2022-11-27T13:33:40;12.77;;;4.80;;
66619;SDS011;53484;51.356;6.732;2022-11-27T13:36:16;10.00;;;4.20;;
66619;SDS011;53484;51.356;6.732;2022-11-27T13:38:43;8.67;;;4.00;;
66619;SDS011;53484;51.356;6.732;2022-11-27T13:41:19;10.02;;;4.88;;
66619;SDS011;53484;51.356;6.732;2022-11-27T13:43:46;10.82;;;5.90;;
66619;SDS011;53484;51.356;6.732;2022-11-27T13:46:14;27.30;;;12.23;;
66619;SDS011;53484;51.356;6.732;2022-11-27T13:48:43;21.58;;;11.18;;
66619;SDS011;53484;51.356;6.732;2022-11-27T13:51:20;9.77;;;4.67;;
66619;SDS011;53484;51.356;6.732;2022-11-27T13:53:47;11.73;;;5.78;;
66619;SDS011;53484;51.356;6.732;2022-11-27T13:56:13;11.52;;;5.07;;
66619;SDS011;53484;51.356;6.732;2022-11-27T13:58:41;9.68;;;4.90;;
66619;SDS011;53484;51.356;6.732;2022-11-27T14:01:11;8.05;;;3.85;;
66619;SDS011;53484;51.356;6.732;2022-11-27T14:03:37;11.20;;;3.80;;
66619;SDS011;53484;51.356;6.732;2022-11-27T14:06:13;9.05;;;3.50;;
66619;SDS011;53484;51.356;6.732;2022-11-27T14:08:47;7.97;;;3.40;;
66619;SDS011;53484;51.356;6.732;2022-11-27T14:11:14;8.68;;;3.92;;
66619;SDS011;53484;51.356;6.732;2022-11-27T14:13:42;7.00;;;3.30;;
66619;SDS011;53484;51.356;6.732;2022-11-27T14:16:17;9.70;;;3.93;;
66619;SDS011;53484;51.356;6.732;2022-11-27T14:18:47;8.50;;;3.50;;
66619;SDS011;53484;51.356;6.732;2022-11-27T14:21:19;6.03;;;2.92;;
66619;SDS011;53484;51.356;6.732;2022-11-27T14:23:47;7.45;;;3.20;;
66619;SDS011;53484;51.356;6.732;2022-11-27T14:26:18;6.60;;;3.40;;
66619;SDS011;53484;51.356;6.732;2022-11-27T14:28:47;9.53;;;3.50;;
66619;SDS011;53484;51.356;6.732;2022-11-27T14:31:20;6.38;;;3.00;;
66619;SDS011;53484;51.356;6.732;2022-11-27T14:33:47;9.35;;;3.25;;
66619;SDS011;53484;51.356;6.732;2022-11-27T14:36:18;7.15;;;2.97;;
66619;SDS011;53484;51.356;6.732;2022-11-27T14:38:46;8.57;;;3.80;;
66619;SDS011;53484;51.356;6.732;2022-11-27T14:41:14;9.33;;;3.50;;
66619;SDS011;53484;51.356;6.732;2022-11-27T14:43:40;8.23;;;3.10;;
66619;SDS011;53484;51.356;6.732;2022-11-27T14:46:11;6.60;;;3.17;;
66619;SDS011;53484;51.356;6.732;2022-11-27T14:48:40;8.00;;;3.28;;
66619;SDS011;53484;51.356;6.732;2022-11-27T14:51:07;9.05;;;3.63;;
66619;SDS011;53484;51.356;6.732;2022-11-27T14:53:35;8.40;;;3.00;;